Time;durP1;ratioP1;P1;durP2;ratioP2;P2;SDS_P1;SDS_P2;PMS_P1;PMS_P2;Temp;Humidity;BMP_temperature;BMP_pressure;BME280_temperature;BME280_humidity;BME280_pressure;Samples;Min_cycle;Max_cycle;Signal;HPM_P1;HPM_P2
2023/03/15 00:02:12;;;;;;;1.90;0.47;;;;;;;6.23;79.45;94708.50;4390115;32;20192;-50
2023/03/15 00:04:37;;;;;;;0.27;0.27;;;;;;;6.57;78.24;94702.31;4379362;32;20213;-50
2023/03/15 00:07:02;;;;;;;0.13;0.13;;;;;;;6.47;78.28;94708.47;4378774;32;20203;-51
2023/03/15 00:09:28;;;;;;;0.10;0.10;;;;;;;6.42;78.85;94703.28;4376685;32;20196;-51
2023/03/15 00:11:53;;;;;;;0.53;0.53;;;;;;;6.53;78.75;94709.97;4383285;32;20192;-51
2023/03/15 00:14:19;;;;;;;0.20;0.20;;;;;;;6.48;79.16;94702.13;4387128;32;20189;-49
2023/03/15 00:16:45;;;;;;;0.30;0.30;;;;;;;6.46;79.01;94707.69;4388154;32;20252;-51
2023/03/15 00:19:10;;;;;;;0.07;0.07;;;;;;;6.41;79.78;94706.97;4386785;32;20298;-49
2023/03/15 00:21:36;;;;;;;0.10;0.10;;;;;;;6.43;80.32;94703.00;4375683;32;20252;-51
2023/03/15 00:24:01;;;;;;;0.50;0.50;;;;;;;6.38;81.11;94705.69;4388681;32;20188;-49
2023/03/15 00:26:26;;;;;;;0.00;0.00;;;;;;;6.39;81.35;94709.09;4379900;32;20192;-49
2023/03/15 00:28:52;;;;;;;0.20;0.20;;;;;;;6.32;82.30;94712.06;4371094;32;20199;-51
2023/03/15 00:31:23;;;;;;;0.10;0.10;;;;;;;5.93;83.92;94717.50;4391217;32;20199;-52
2023/03/15 00:33:52;;;;;;;0.30;0.27;;;;;;;5.86;85.28;94717.00;4379397;32;20267;-52
2023/03/15 00:36:18;;;;;;;0.23;0.23;;;;;;;5.93;86.05;94711.44;4379367;32;20288;-51
2023/03/15 00:38:43;;;;;;;0.27;0.27;;;;;;;5.79;87.15;94724.47;4378050;32;20286;-52
2023/03/15 00:41:12;;;;;;;0.10;0.10;;;;;;;5.68;87.53;94718.50;4378737;32;20282;-53
2023/03/15 00:43:37;;;;;;;0.40;0.40;;;;;;;5.43;88.46;94714.22;4368510;32;20196;-51
2023/03/15 00:46:04;;;;;;;0.00;0.00;;;;;;;5.41;89.12;94718.97;4378908;32;20317;-51
2023/03/15 00:48:30;;;;;;;0.20;0.20;;;;;;;5.46;89.42;94716.31;4390928;32;20274;-51
2023/03/15 00:51:22;;;;;;;0.37;0.27;;;;;;;5.18;90.33;94715.22;4389853;32;20285;-53
2023/03/15 00:53:50;;;;;;;0.10;0.10;;;;;;;5.01;91.14;94708.75;4373742;32;20229;-50
2023/03/15 00:56:23;;;;;;;0.40;0.40;;;;;;;5.07;91.44;94711.09;4389858;32;20596;-52
2023/03/15 00:58:51;;;;;;;0.10;0.10;;;;;;;4.98;92.33;94730.34;4384360;32;20292;-51
2023/03/15 01:01:23;;;;;;;0.27;0.27;;;;;;;5.09;92.08;94750.25;4377363;32;20319;-52
2023/03/15 01:03:49;;;;;;;0.47;0.47;;;;;;;5.02;91.57;94778.66;4377819;32;20299;-52
2023/03/15 01:06:24;;;;;;;0.20;0.20;;;;;;;4.64;91.58;94790.66;4391254;32;20320;-51
2023/03/15 01:08:50;;;;;;;0.30;0.30;;;;;;;4.46;90.25;94803.34;4384440;32;20188;-53
2023/03/15 01:11:23;;;;;;;0.03;0.03;;;;;;;4.05;90.92;94789.53;4391337;32;20390;-50
2023/03/15 01:13:54;;;;;;;0.30;0.30;;;;;;;3.83;92.06;94791.66;4392618;32;20291;-50
2023/03/15 01:16:20;;;;;;;0.17;0.17;;;;;;;3.70;92.29;94785.09;4381133;32;20320;-52
2023/03/15 01:18:46;;;;;;;0.00;0.00;;;;;;;3.69;92.43;94783.53;4384899;32;20394;-53
2023/03/15 01:21:13;;;;;;;0.00;0.00;;;;;;;3.65;92.88;94781.69;4389515;32;20248;-51
2023/03/15 01:23:39;;;;;;;0.00;0.00;;;;;;;3.42;93.88;94773.31;4385569;32;20195;-54
2023/03/15 01:26:06;;;;;;;1.33;0.50;;;;;;;3.34;94.28;94760.69;4378447;32;20280;-51
2023/03/15 01:28:32;;;;;;;0.07;0.07;;;;;;;3.47;94.61;94756.00;4391947;32;20193;-52
2023/03/15 01:30:57;;;;;;;0.00;0.00;;;;;;;3.41;95.31;94755.22;4378200;32;20347;-52
2023/03/15 01:33:23;;;;;;;0.07;0.07;;;;;;;3.52;94.75;94753.38;4392307;32;20196;-49
2023/03/15 01:35:58;;;;;;;3.30;0.40;;;;;;;3.65;94.39;94763.34;4348935;32;20173;-51
2023/03/15 01:38:23;;;;;;;0.13;0.03;;;;;;;3.71;93.79;94744.72;4389934;32;20231;-50
2023/03/15 01:40:48;;;;;;;0.00;0.00;;;;;;;3.48;94.82;94733.97;4374353;32;20378;-49
2023/03/15 01:43:19;;;;;;;0.20;0.20;;;;;;;3.35;95.91;94722.97;4392198;32;20196;-51
2023/03/15 01:46:06;;;;;;;0.00;0.00;;;;;;;3.62;95.71;94730.56;4384954;32;20231;-48
2023/03/15 01:48:54;;;;;;;0.00;0.00;;;;;;;3.48;95.53;94752.34;4378035;32;20272;-50
2023/03/15 01:51:25;;;;;;;0.00;0.00;;;;;;;3.47;95.94;94750.75;4387546;32;20267;-51
2023/03/15 01:54:01;;;;;;;0.10;0.10;;;;;;;3.72;95.40;94753.38;4388670;32;20276;-52
2023/03/15 01:56:28;;;;;;;0.43;0.43;;;;;;;3.70;95.29;94752.84;4372818;32;20311;-50
2023/03/15 01:58:57;;;;;;;0.00;0.00;;;;;;;3.64;95.48;94754.69;4385504;32;20277;-53
2023/03/15 02:01:23;;;;;;;0.00;0.00;;;;;;;3.69;95.08;94752.06;4389732;32;20334;-50
2023/03/15 02:03:55;;;;;;;0.00;0.00;;;;;;;3.75;94.78;94765.94;4374398;32;20351;-47
2023/03/15 02:06:22;;;;;;;0.00;0.00;;;;;;;3.58;95.25;94773.28;4386623;32;20241;-51
2023/03/15 02:09:01;;;;;;;0.20;0.20;;;;;;;3.79;94.40;94793.22;4378342;32;20321;-50
2023/03/15 02:11:27;;;;;;;0.00;0.00;;;;;;;3.75;95.01;94781.69;4388447;32;20293;-47
2023/03/15 02:13:54;;;;;;;0.20;0.20;;;;;;;3.87;94.74;94776.97;4382691;32;20284;-48
2023/03/15 02:16:21;;;;;;;0.10;0.10;;;;;;;3.63;95.04;94781.97;4363362;32;20189;-51
2023/03/15 02:18:46;;;;;;;0.20;0.20;;;;;;;3.54;95.93;94782.72;4386825;32;20364;-50
2023/03/15 02:21:33;;;;;;;0.00;0.00;;;;;;;3.52;95.95;94777.78;4365049;32;20335;-50
2023/03/15 02:24:13;;;;;;;0.00;0.00;;;;;;;3.80;95.14;94776.44;4388640;32;20189;-53
2023/03/15 02:26:47;;;;;;;0.10;0.10;;;;;;;3.80;95.18;94792.16;4385694;32;20417;-50
2023/03/15 02:29:12;;;;;;;0.00;0.00;;;;;;;3.84;94.74;94793.22;4391154;32;20297;-48
2023/03/15 02:31:38;;;;;;;0.00;0.00;;;;;;;3.73;95.00;94799.53;4385201;32;20299;-50
2023/03/15 02:34:06;;;;;;;0.00;0.00;;;;;;;3.84;94.80;94806.34;4372593;32;20196;-50
2023/03/15 02:36:32;;;;;;;0.00;0.00;;;;;;;3.82;95.00;94808.44;4391894;32;20226;-49
2023/03/15 02:38:57;;;;;;;0.10;0.10;;;;;;;3.90;95.11;94807.91;4376971;32;20284;-49
2023/03/15 02:41:46;;;;;;;0.30;0.30;;;;;;;3.81;95.48;94814.72;4381826;32;20288;-51
2023/03/15 02:44:32;;;;;;;0.00;0.00;;;;;;;3.69;96.07;94825.50;4376485;32;20184;-48
2023/03/15 02:47:05;;;;;;;0.10;0.10;;;;;;;3.58;95.43;94817.87;4376488;32;20284;-50
2023/03/15 02:49:34;;;;;;;0.10;0.10;;;;;;;3.76;95.26;94826.00;4381392;32;20295;-49
2023/03/15 02:52:00;;;;;;;0.20;0.20;;;;;;;3.74;95.36;94833.34;4365513;32;20320;-51
2023/03/15 02:54:25;;;;;;;0.37;0.37;;;;;;;3.74;95.80;94835.97;4393630;32;20341;-50
2023/03/15 02:56:50;;;;;;;0.10;0.10;;;;;;;3.74;96.11;94843.06;4378318;32;20200;-51
2023/03/15 02:59:16;;;;;;;0.10;0.10;;;;;;;3.57;95.88;94858.25;4388525;32;20225;-50
2023/03/15 03:01:44;;;;;;;0.20;0.20;;;;;;;3.77;96.35;94853.81;4387861;32;20184;-48
2023/03/15 03:04:10;;;;;;;0.97;0.97;;;;;;;3.83;94.85;94887.91;4390605;32;20231;-50
2023/03/15 03:06:35;;;;;;;0.77;0.37;;;;;;;3.89;93.51;94900.78;4387649;32;20280;-51
2023/03/15 03:09:03;;;;;;;0.10;0.10;;;;;;;3.61;93.29;94911.75;4376615;32;20227;-49
2023/03/15 03:11:29;;;;;;;0.10;0.10;;;;;;;3.51;93.82;94917.00;4377129;32;20183;-53
2023/03/15 03:13:54;;;;;;;0.10;0.10;;;;;;;3.50;93.50;94931.94;4387126;32;20315;-53
2023/03/15 03:16:21;;;;;;;0.13;0.13;;;;;;;3.48;94.54;94948.97;4388276;32;20227;-46
2023/03/15 03:18:47;;;;;;;0.00;0.00;;;;;;;3.45;94.38;94950.25;4375071;32;20233;-51
2023/03/15 03:21:13;;;;;;;0.23;0.23;;;;;;;3.34;94.87;94962.53;4391017;32;20276;-50
2023/03/15 03:23:39;;;;;;;0.10;0.10;;;;;;;3.17;93.98;94975.03;4376372;32;20197;-51
2023/03/15 03:26:15;;;;;;;0.27;0.27;;;;;;;3.05;93.57;94988.38;4387091;32;20330;-51
2023/03/15 03:28:43;;;;;;;0.17;0.17;;;;;;;2.91;94.74;94987.22;4384767;32;20206;-52
2023/03/15 03:31:18;;;;;;;0.10;0.10;;;;;;;2.92;94.78;95004.50;4374896;32;20389;-52
2023/03/15 03:33:43;;;;;;;0.10;0.10;;;;;;;2.80;96.07;95008.37;4369833;32;20296;-50
2023/03/15 03:36:08;;;;;;;0.10;0.10;;;;;;;2.85;96.46;95013.66;4373704;32;20317;-51
2023/03/15 03:38:34;;;;;;;0.47;0.47;;;;;;;2.95;95.66;95019.72;4384652;32;20184;-50
2023/03/15 03:40:59;;;;;;;0.00;0.00;;;;;;;2.98;95.68;95039.41;4386487;32;20255;-52
2023/03/15 03:43:24;;;;;;;0.00;0.00;;;;;;;2.95;95.08;95042.50;4375869;32;20225;-49
2023/03/15 03:45:50;;;;;;;0.63;0.63;;;;;;;2.84;95.53;95074.94;4388234;32;20247;-51
2023/03/15 03:48:15;;;;;;;0.23;0.23;;;;;;;2.73;95.23;95058.34;4386458;32;20287;-50
2023/03/15 03:50:40;;;;;;;0.57;0.57;;;;;;;2.73;95.60;95064.38;4374846;32;20181;-49
2023/03/15 03:53:05;;;;;;;0.30;0.30;;;;;;;2.76;94.61;95061.25;4387669;32;20202;-49
2023/03/15 03:55:32;;;;;;;0.03;0.03;;;;;;;2.53;95.72;95069.44;4376610;32;20188;-50
2023/03/15 03:57:58;;;;;;;0.43;0.43;;;;;;;2.76;95.24;95084.03;4376108;32;20261;-51
2023/03/15 04:00:23;;;;;;;0.30;0.30;;;;;;;2.79;95.56;95090.59;4376441;32;20296;-51
2023/03/15 04:02:52;;;;;;;0.67;0.67;;;;;;;2.73;94.91;95098.41;4387219;32;20211;-53
2023/03/15 04:05:18;;;;;;;0.40;0.40;;;;;;;2.79;94.38;95106.31;4375975;32;20189;-50
2023/03/15 04:07:43;;;;;;;0.10;0.10;;;;;;;3.03;93.86;95110.19;4377315;32;20337;-51
2023/03/15 04:10:13;;;;;;;0.00;0.00;;;;;;;3.01;92.55;95127.97;4386033;32;20205;-46
2023/03/15 04:12:40;;;;;;;0.40;0.40;;;;;;;2.89;92.03;95127.38;4372316;32;20236;-53
2023/03/15 04:15:06;;;;;;;0.30;0.30;;;;;;;2.88;93.52;95125.78;4365847;32;20284;-48
2023/03/15 04:17:32;;;;;;;7.90;0.40;;;;;;;2.80;92.66;95136.69;4372167;32;20264;-51
2023/03/15 04:20:00;;;;;;;0.20;0.20;;;;;;;2.73;94.32;95142.91;4382823;32;20200;-50
2023/03/15 04:22:26;;;;;;;0.27;0.27;;;;;;;2.90;94.48;95147.28;4384689;32;20331;-57
2023/03/15 04:24:51;;;;;;;0.63;0.63;;;;;;;2.85;94.78;95155.09;4389940;32;20284;-50
2023/03/15 04:27:16;;;;;;;0.43;0.43;;;;;;;2.77;94.28;95158.94;4388995;32;20202;-49
2023/03/15 04:29:42;;;;;;;0.30;0.30;;;;;;;2.79;94.27;95167.34;4383844;32;20216;-52
2023/03/15 04:32:08;;;;;;;0.07;0.07;;;;;;;2.78;94.20;95173.63;4375388;32;20252;-53
2023/03/15 04:34:37;;;;;;;0.50;0.50;;;;;;;2.90;93.66;95173.47;4388709;32;20181;-52
2023/03/15 04:37:04;;;;;;;0.10;0.10;;;;;;;2.87;93.24;95187.84;4379583;32;20310;-52
2023/03/15 04:39:29;;;;;;;0.40;0.40;;;;;;;3.03;93.09;95194.81;4388925;32;20299;-50
2023/03/15 04:41:54;;;;;;;0.30;0.30;;;;;;;2.99;92.20;95192.94;4394107;32;20277;-53
2023/03/15 04:44:20;;;;;;;0.17;0.17;;;;;;;3.08;92.49;95204.53;4390445;32;20244;-53
2023/03/15 04:46:45;;;;;;;0.93;0.37;;;;;;;3.03;91.59;95210.53;4378656;32;20270;-50
2023/03/15 04:49:10;;;;;;;0.27;0.27;;;;;;;3.20;91.05;95218.25;4385709;32;20290;-50
2023/03/15 04:51:36;;;;;;;0.03;0.03;;;;;;;3.16;90.32;95213.75;4378144;32;20176;-51
2023/03/15 04:54:02;;;;;;;0.27;0.27;;;;;;;3.16;90.99;95217.19;4386452;32;20226;-50
2023/03/15 04:56:29;;;;;;;0.70;0.70;;;;;;;3.05;91.76;95220.75;4390424;32;20193;-53
2023/03/15 04:58:55;;;;;;;0.17;0.17;;;;;;;3.04;90.96;95232.28;4393842;32;20191;-47
2023/03/15 05:01:26;;;;;;;0.50;0.50;;;;;;;3.12;90.53;95229.19;4391088;32;20342;-50
2023/03/15 05:03:52;;;;;;;0.50;0.50;;;;;;;3.03;91.43;95238.56;4380307;32;20206;-51
2023/03/15 05:06:18;;;;;;;0.40;0.40;;;;;;;3.07;91.73;95247.50;4376688;32;20283;-52
2023/03/15 05:08:44;;;;;;;0.17;0.17;;;;;;;2.84;91.46;95247.78;4382531;32;20192;-53
2023/03/15 05:11:09;;;;;;;0.20;0.20;;;;;;;2.84;91.41;95258.28;4385854;32;20252;-52
2023/03/15 05:13:35;;;;;;;0.40;0.40;;;;;;;2.79;92.02;95271.31;4388892;32;20180;-53
2023/03/15 05:16:00;;;;;;;2.83;1.40;;;;;;;2.60;92.58;95278.69;4374607;32;20231;-52
2023/03/15 05:18:25;;;;;;;0.60;0.50;;;;;;;2.64;92.70;95285.03;4388378;32;20176;-53
2023/03/15 05:20:50;;;;;;;0.77;0.40;;;;;;;2.67;92.96;95281.94;4391330;32;20176;-50
2023/03/15 05:23:16;;;;;;;0.57;0.37;;;;;;;2.51;94.21;95290.59;4389897;32;20211;-50
2023/03/15 05:25:42;;;;;;;0.40;0.40;;;;;;;2.57;94.21;95295.69;4369269;32;20196;-51
2023/03/15 05:28:07;;;;;;;0.10;0.10;;;;;;;2.55;93.41;95297.75;4384473;32;20205;-51
2023/03/15 05:30:32;;;;;;;0.70;0.70;;;;;;;2.57;93.48;95300.91;4369105;32;20181;-52
2023/03/15 05:32:58;;;;;;;0.20;0.20;;;;;;;2.67;93.18;95301.03;4392402;32;20192;-50
2023/03/15 05:35:25;;;;;;;0.20;0.20;;;;;;;2.49;94.28;95314.44;4380067;32;20195;-48
2023/03/15 05:37:51;;;;;;;0.30;0.23;;;;;;;2.56;93.93;95314.25;4382073;32;20263;-49
2023/03/15 05:40:17;;;;;;;0.00;0.00;;;;;;;2.65;94.03;95323.28;4392825;32;20420;-50
2023/03/15 05:42:43;;;;;;;0.63;0.47;;;;;;;2.64;93.30;95324.31;4390467;32;20364;-50
2023/03/15 05:45:08;;;;;;;0.20;0.20;;;;;;;2.61;93.15;95332.62;4391149;32;20209;-47
2023/03/15 05:47:35;;;;;;;0.10;0.10;;;;;;;2.55;94.01;95333.59;4388953;32;20211;-49
2023/03/15 05:50:00;;;;;;;0.10;0.10;;;;;;;2.58;93.59;95327.88;4378433;32;20227;-47
2023/03/15 05:52:26;;;;;;;0.20;0.20;;;;;;;2.68;92.68;95331.44;4378148;32;20330;-53
2023/03/15 05:54:51;;;;;;;0.57;0.57;;;;;;;2.57;93.51;95342.81;4377220;32;20192;-51
2023/03/15 05:57:17;;;;;;;0.20;0.20;;;;;;;2.58;93.62;95341.78;4376229;32;20225;-48
2023/03/15 05:59:42;;;;;;;0.10;0.10;;;;;;;2.78;93.97;95353.53;4391561;32;20230;-51
2023/03/15 06:02:07;;;;;;;0.23;0.23;;;;;;;2.75;92.33;95360.84;4379106;32;20228;-52
2023/03/15 06:04:33;;;;;;;0.40;0.40;;;;;;;2.78;90.80;95361.38;4375791;32;20192;-51
2023/03/15 06:06:58;;;;;;;0.70;0.70;;;;;;;2.63;92.21;95373.25;4373568;32;20227;-50
2023/03/15 06:09:23;;;;;;;0.47;0.47;;;;;;;2.57;92.65;95376.84;4374811;32;20199;-49
2023/03/15 06:11:49;;;;;;;0.40;0.40;;;;;;;2.60;92.84;95378.19;4377817;32;20189;-51
2023/03/15 06:14:15;;;;;;;1.10;1.10;;;;;;;2.58;92.87;95375.00;4391262;32;20200;-49
2023/03/15 06:16:40;;;;;;;0.20;0.20;;;;;;;2.72;92.10;95376.25;4385316;32;20341;-50
2023/03/15 06:19:05;;;;;;;1.17;1.03;;;;;;;2.78;91.60;95384.97;4392017;32;20207;-49
2023/03/15 06:21:31;;;;;;;0.20;0.20;;;;;;;2.78;90.82;95396.22;4390165;32;20185;-49
2023/03/15 06:23:56;;;;;;;0.73;0.67;;;;;;;2.83;90.75;95408.59;4368284;32;20198;-55
2023/03/15 06:26:21;;;;;;;0.23;0.23;;;;;;;2.73;91.08;95415.28;4377971;32;20188;-52
2023/03/15 06:28:47;;;;;;;8.33;1.77;;;;;;;2.75;90.96;95405.34;4374647;32;20185;-51
2023/03/15 06:31:14;;;;;;;1.23;1.23;;;;;;;2.80;91.03;95409.09;4389816;32;20278;-49
2023/03/15 06:33:40;;;;;;;0.40;0.40;;;;;;;2.75;90.57;95413.22;4377478;32;20263;-49
2023/03/15 06:36:06;;;;;;;0.53;0.53;;;;;;;2.75;90.68;95412.44;4377908;32;20295;-49
2023/03/15 06:38:32;;;;;;;0.57;0.57;;;;;;;2.69;90.84;95416.03;4389814;32;20204;-50
2023/03/15 06:41:00;;;;;;;0.70;0.70;;;;;;;2.45;92.10;95412.00;4389689;32;20338;-50
2023/03/15 06:43:26;;;;;;;0.40;0.40;;;;;;;2.69;91.67;95419.44;4375625;32;20252;-59
2023/03/15 06:45:52;;;;;;;0.47;0.47;;;;;;;2.86;90.63;95414.16;4385296;32;20321;-51
2023/03/15 06:48:18;;;;;;;0.73;0.57;;;;;;;2.68;90.93;95423.09;4391577;32;20207;-49
2023/03/15 06:50:43;;;;;;;0.40;0.40;;;;;;;2.77;90.93;95426.06;4377465;32;20184;-48
2023/03/15 06:53:08;;;;;;;0.47;0.47;;;;;;;2.92;90.23;95422.84;4369647;32;20218;-52
2023/03/15 06:55:34;;;;;;;0.83;0.83;;;;;;;2.72;90.88;95418.94;4391251;32;20251;-51
2023/03/15 06:57:59;;;;;;;0.50;0.50;;;;;;;2.88;90.18;95432.25;4389773;32;20199;-52
2023/03/15 07:00:25;;;;;;;0.43;0.43;;;;;;;3.05;89.82;95433.00;4383651;32;20202;-50
2023/03/15 07:02:50;;;;;;;0.63;0.63;;;;;;;2.97;89.81;95434.19;4377068;32;20236;-50
2023/03/15 07:05:15;;;;;;;1.37;1.37;;;;;;;3.04;89.97;95437.44;4376927;32;20301;-50
2023/03/15 07:07:41;;;;;;;0.63;0.63;;;;;;;3.00;89.84;95444.19;4388519;32;20201;-49
2023/03/15 07:10:06;;;;;;;2.47;1.10;;;;;;;3.03;89.19;95435.84;4389795;32;20188;-50
2023/03/15 07:12:32;;;;;;;0.87;0.87;;;;;;;2.92;89.40;95438.56;4389043;32;20199;-49
2023/03/15 07:14:57;;;;;;;1.00;1.00;;;;;;;2.88;90.21;95438.28;4389732;32;20188;-50
2023/03/15 07:17:22;;;;;;;1.63;1.53;;;;;;;3.08;89.15;95453.47;4389155;32;20193;-50
2023/03/15 07:19:48;;;;;;;1.20;1.20;;;;;;;3.06;89.32;95445.06;4389725;32;20193;-51
2023/03/15 07:22:13;;;;;;;4.23;2.50;;;;;;;3.18;88.03;95445.72;4377017;32;20195;-42
2023/03/15 07:24:39;;;;;;;2.90;2.70;;;;;;;7.15;100.00;95436.09;4391529;32;20192;-44
2023/03/15 07:27:04;;;;;;;2.93;2.50;;;;;;;9.61;100.00;95425.75;4380233;32;20248;-44
2023/03/15 07:29:31;;;;;;;0.70;0.70;;;;;;;10.84;92.45;95443.34;4373453;32;20255;-42
2023/03/15 07:31:56;;;;;;;10.10;1.67;;;;;;;11.47;76.69;95437.41;4375253;32;20231;-45
2023/03/15 07:34:22;;;;;;;0.70;0.70;;;;;;;11.37;65.14;95446.38;4377652;32;20277;-44
2023/03/15 07:36:47;;;;;;;1.90;1.80;;;;;;;11.63;64.48;95455.44;4390049;32;20259;-44
2023/03/15 07:39:12;;;;;;;0.93;0.93;;;;;;;11.70;62.55;95462.97;4382750;32;20263;-43
2023/03/15 07:41:38;;;;;;;0.93;0.90;;;;;;;12.11;60.02;95457.63;4372846;32;20219;-41
2023/03/15 07:44:04;;;;;;;0.37;0.37;;;;;;;11.85;57.75;95456.59;4376413;32;20227;-41
2023/03/15 07:46:29;;;;;;;0.60;0.60;;;;;;;11.35;59.95;95469.78;4381120;32;20218;-41
2023/03/15 07:48:55;;;;;;;0.50;0.50;;;;;;;11.54;57.08;95467.81;4384844;32;20195;-44
2023/03/15 07:51:20;;;;;;;1.90;1.53;;;;;;;11.81;57.13;95466.28;4374457;32;20188;-43
2023/03/15 07:53:46;;;;;;;2.07;0.90;;;;;;;12.00;56.34;95456.28;4388342;32;20215;-53
2023/03/15 07:56:11;;;;;;;0.63;0.63;;;;;;;10.13;55.67;95470.94;4385034;32;20204;-51
2023/03/15 07:58:36;;;;;;;2.03;1.30;;;;;;;8.67;59.64;95471.47;4390827;32;20220;-52
2023/03/15 08:01:01;;;;;;;1.27;1.27;;;;;;;7.31;63.13;95474.53;4386186;32;20188;-52
2023/03/15 08:03:27;;;;;;;1.37;1.27;;;;;;;6.28;68.76;95484.66;4389058;32;20271;-54
2023/03/15 08:05:52;;;;;;;1.77;1.67;;;;;;;5.66;70.87;95478.41;4377949;32;20188;-51
2023/03/15 08:08:18;;;;;;;0.47;0.47;;;;;;;4.94;74.24;95480.97;4387293;32;20185;-52
2023/03/15 08:10:44;;;;;;;0.90;0.90;;;;;;;4.86;76.41;95474.34;4389714;32;20255;-53
2023/03/15 08:13:10;;;;;;;1.23;1.23;;;;;;;4.96;76.00;95476.25;4378526;32;20189;-53
2023/03/15 08:15:35;;;;;;;2.33;1.73;;;;;;;4.69;78.26;95471.88;4387918;32;20188;-54
2023/03/15 08:18:01;;;;;;;1.47;1.37;;;;;;;4.81;78.34;95476.94;4395032;32;20232;-50
2023/03/15 08:20:27;;;;;;;0.93;0.93;;;;;;;5.03;75.99;95468.91;4374555;32;20191;-53
2023/03/15 08:22:53;;;;;;;0.83;0.83;;;;;;;4.77;76.54;95481.94;4393906;32;20189;-51
2023/03/15 08:25:22;;;;;;;1.20;1.20;;;;;;;4.88;75.93;95474.09;4375397;32;20184;-54
2023/03/15 08:27:49;;;;;;;0.90;0.90;;;;;;;4.73;76.01;95465.06;4378421;32;20188;-51
2023/03/15 08:30:15;;;;;;;0.30;0.30;;;;;;;4.98;76.16;95472.34;4379098;32;20284;-52
2023/03/15 08:32:43;;;;;;;0.67;0.67;;;;;;;4.56;76.78;95469.69;4386800;32;20330;-55
2023/03/15 08:35:11;;;;;;;1.27;1.27;;;;;;;4.55;76.18;95475.19;4372874;32;20271;-54
2023/03/15 08:37:37;;;;;;;0.73;0.73;;;;;;;4.54;76.12;95479.66;4370007;32;20283;-54
2023/03/15 08:40:08;;;;;;;1.50;1.50;;;;;;;4.46;76.11;95480.87;4374970;32;20284;-51
2023/03/15 08:42:35;;;;;;;0.97;0.97;;;;;;;4.35;78.62;95478.44;4391084;32;20232;-53
2023/03/15 08:45:01;;;;;;;0.97;0.97;;;;;;;4.45;78.22;95465.37;4379743;32;20390;-51
2023/03/15 08:47:27;;;;;;;1.53;1.47;;;;;;;4.68;77.78;95467.66;4391087;32;20300;-54
2023/03/15 08:49:52;;;;;;;1.03;1.03;;;;;;;5.01;75.65;95468.38;4394457;32;20295;-52
2023/03/15 08:52:18;;;;;;;0.93;0.93;;;;;;;4.99;75.67;95468.63;4393441;32;20177;-52
2023/03/15 08:54:44;;;;;;;1.00;1.00;;;;;;;4.93;72.01;95459.16;4381800;32;20264;-51
2023/03/15 08:57:11;;;;;;;0.87;0.87;;;;;;;4.54;73.54;95471.78;4379699;32;20337;-54
2023/03/15 08:59:37;;;;;;;0.70;0.70;;;;;;;4.78;73.13;95472.97;4378515;32;20180;-50
2023/03/15 09:02:02;;;;;;;1.70;1.07;;;;;;;4.93;72.77;95471.50;4379135;32;20392;-52
2023/03/15 09:04:28;;;;;;;0.93;0.93;;;;;;;4.83;72.60;95467.75;4389217;32;20191;-50
2023/03/15 09:06:54;;;;;;;1.50;0.97;;;;;;;4.82;69.50;95468.00;4394863;32;20259;-51
2023/03/15 09:09:19;;;;;;;0.67;0.67;;;;;;;4.71;69.69;95469.78;4391680;32;20188;-50
2023/03/15 09:11:44;;;;;;;0.80;0.80;;;;;;;4.56;68.22;95472.31;4391651;32;20229;-49
2023/03/15 09:14:09;;;;;;;3.87;0.90;;;;;;;4.73;67.21;95475.59;4389992;32;20192;-49
2023/03/15 09:16:35;;;;;;;5.77;1.17;;;;;;;4.70;66.79;95476.09;4379135;32;20192;-48
2023/03/15 09:19:00;;;;;;;1.70;0.97;;;;;;;4.82;66.51;95479.31;4388229;32;20243;-52
2023/03/15 09:21:26;;;;;;;0.90;0.90;;;;;;;4.92;66.81;95469.91;4373854;32;20185;-52
2023/03/15 09:23:52;;;;;;;5.07;0.93;;;;;;;4.79;67.34;95469.31;4387823;32;20242;-50
2023/03/15 09:26:17;;;;;;;1.20;1.20;;;;;;;4.73;68.50;95470.34;4392666;32;20327;-54
2023/03/15 09:28:42;;;;;;;1.53;0.87;;;;;;;4.82;68.84;95471.44;4384542;32;20188;-51
2023/03/15 09:31:08;;;;;;;1.17;1.17;;;;;;;4.96;68.06;95468.38;4373760;32;20184;-54
2023/03/15 09:33:35;;;;;;;1.00;1.00;;;;;;;4.90;68.90;95472.81;4378794;32;20180;-52
2023/03/15 09:36:01;;;;;;;0.20;0.20;;;;;;;5.11;68.80;95481.59;4378192;32;20295;-50
2023/03/15 09:38:26;;;;;;;2.00;0.90;;;;;;;4.97;66.62;95475.22;4386671;32;20306;-52
2023/03/15 09:40:58;;;;;;;0.53;0.53;;;;;;;4.99;66.53;95473.13;4386687;32;20185;-48
2023/03/15 09:43:50;;;;;;;1.00;1.00;;;;;;;4.90;66.73;95475.44;4368840;32;20226;-49
2023/03/15 09:46:21;;;;;;;1.60;1.10;;;;;;;5.00;68.45;95469.44;4354434;32;20295;-51
2023/03/15 09:48:53;;;;;;;1.10;1.10;;;;;;;5.23;68.01;95479.53;4387164;32;20272;-49
2023/03/15 09:51:24;;;;;;;0.63;0.63;;;;;;;5.32;66.88;95464.88;4391072;32;20327;-53
2023/03/15 09:54:04;;;;;;;5.03;1.00;;;;;;;5.46;66.53;95465.97;4379910;32;20306;-51
2023/03/15 09:56:52;;;;;;;0.20;0.20;;;;;;;5.48;67.67;95477.03;4386413;32;20330;-49
2023/03/15 09:59:21;;;;;;;0.90;0.90;;;;;;;5.64;64.34;95471.84;4391552;32;20310;-51
2023/03/15 10:01:49;;;;;;;1.10;1.03;;;;;;;5.72;69.43;95476.59;4376349;32;20327;-52
2023/03/15 10:04:28;;;;;;;0.67;0.67;;;;;;;5.81;66.21;95481.13;4378379;32;20366;-50
2023/03/15 10:06:56;;;;;;;0.90;0.90;;;;;;;6.01;63.78;95479.63;4381132;32;20280;-52
2023/03/15 10:09:25;;;;;;;5.50;0.63;;;;;;;6.08;64.20;95475.66;4386535;32;20398;-52
2023/03/15 10:12:03;;;;;;;0.20;0.20;;;;;;;6.12;64.55;95486.47;4368410;32;20276;-53
2023/03/15 10:14:53;;;;;;;0.70;0.70;;;;;;;6.29;63.63;95480.97;4389145;32;20319;-54
2023/03/15 10:17:50;;;;;;;2.27;0.50;;;;;;;6.11;61.83;95488.31;4387301;32;20283;-53
2023/03/15 10:20:23;;;;;;;0.50;0.50;;;;;;;6.16;62.47;95496.25;4389565;32;20292;-52
2023/03/15 10:23:06;;;;;;;1.63;0.97;;;;;;;6.47;61.81;95491.00;4373629;32;20301;-53
2023/03/15 10:25:33;;;;;;;1.10;1.03;;;;;;;6.45;60.05;95501.00;4375038;32;20284;-58
2023/03/15 10:28:03;;;;;;;0.50;0.50;;;;;;;6.09;60.64;95490.41;4374514;32;20352;-54
2023/03/15 10:30:32;;;;;;;0.80;0.80;;;;;;;6.28;60.20;95495.19;4382652;32;20263;-51
2023/03/15 10:32:59;;;;;;;0.50;0.50;;;;;;;6.47;60.32;95496.25;4387509;32;20359;-53
2023/03/15 10:35:25;;;;;;;0.53;0.53;;;;;;;6.34;56.82;95494.94;4388263;32;20267;-52
2023/03/15 10:37:50;;;;;;;0.30;0.20;;;;;;;6.48;56.53;95480.19;4378587;32;20310;-55
2023/03/15 10:40:42;;;;;;;3.73;0.50;;;;;;;5.90;58.64;95489.31;4375256;32;20264;-52
2023/03/15 10:43:19;;;;;;;0.30;0.30;;;;;;;5.86;58.16;95488.22;4371963;32;20180;-49
2023/03/15 10:46:07;;;;;;;0.37;0.37;;;;;;;5.92;57.85;95497.75;4382689;32;20317;-53
2023/03/15 10:48:50;;;;;;;2.53;0.50;;;;;;;5.77;57.45;95501.09;4390207;32;20340;-56
2023/03/15 10:51:36;;;;;;;0.20;0.20;;;;;;;5.76;56.96;95490.84;4389473;32;20465;-53
2023/03/15 10:54:13;;;;;;;0.43;0.43;;;;;;;5.84;58.23;95487.69;4365653;32;20349;-59
2023/03/15 10:56:48;;;;;;;0.17;0.17;;;;;;;5.68;58.20;95486.06;4387301;32;20373;-54
2023/03/15 10:59:16;;;;;;;1.53;0.87;;;;;;;5.57;59.29;95481.81;4376297;32;20290;-49
2023/03/15 11:01:46;;;;;;;2.10;0.57;;;;;;;5.76;58.37;95485.56;4389633;32;20416;-55
2023/03/15 11:04:16;;;;;;;0.47;0.47;;;;;;;5.84;56.44;95467.41;4391649;32;20284;-53
2023/03/15 11:06:57;;;;;;;1.17;1.07;;;;;;;5.94;54.99;95484.34;4384004;32;20335;-50
2023/03/15 11:09:25;;;;;;;0.20;0.20;;;;;;;5.82;56.51;95476.63;4386130;32;20398;-53
2023/03/15 11:12:02;;;;;;;0.53;0.53;;;;;;;6.10;56.02;95480.69;4381968;32;20329;-53
2023/03/15 11:14:44;;;;;;;0.10;0.10;;;;;;;6.24;54.29;95480.94;4387750;32;20275;-52
2023/03/15 11:17:22;;;;;;;0.63;0.63;;;;;;;6.19;54.55;95477.28;4370269;32;20283;-55
2023/03/15 11:20:08;;;;;;;0.47;0.47;;;;;;;6.35;53.28;95469.38;4386829;32;20343;-51
2023/03/15 11:22:34;;;;;;;0.10;0.10;;;;;;;6.46;51.50;95470.97;4385310;32;20296;-53
2023/03/15 11:24:59;;;;;;;0.30;0.30;;;;;;;6.37;50.79;95469.91;4374848;32;20326;-53
2023/03/15 11:27:26;;;;;;;0.53;0.53;;;;;;;6.31;50.88;95468.31;4372360;32;20188;-53
2023/03/15 11:29:57;;;;;;;0.27;0.27;;;;;;;6.53;53.16;95471.50;4385500;32;20241;-50
2023/03/15 11:32:27;;;;;;;5.20;0.57;;;;;;;6.42;51.22;95469.94;4390337;32;20368;-51
2023/03/15 11:34:57;;;;;;;0.10;0.10;;;;;;;6.73;52.02;95463.59;4388207;32;20398;-53
2023/03/15 11:37:31;;;;;;;0.63;0.63;;;;;;;6.76;51.63;95459.63;4380366;32;22657;-52
2023/03/15 11:40:12;;;;;;;0.13;0.13;;;;;;;6.66;49.85;95455.16;4390623;32;20275;-52
2023/03/15 11:42:50;;;;;;;0.30;0.30;;;;;;;6.81;48.93;95457.78;4373598;32;20283;-51
2023/03/15 11:45:44;;;;;;;0.20;0.20;;;;;;;6.94;48.71;95453.81;4381016;32;20284;-51
2023/03/15 11:48:24;;;;;;;0.27;0.27;;;;;;;7.06;50.04;95456.16;4366400;32;20279;-50